Latest Weather Observations for Campbelltown

IDN60901

Issued at 10:21 pm EDT Tuesday 24 October 2017 (issued every 10 minutes, with the page automatically refreshed every 10 minutes)

About weather observations | Map of Sydney area stations | Latest observations for Sydney area | Other Formats
Station Details ID: 068257 Name: CAMPBELLTOWN (MOUNT ANNAN) Lat: -34.06 Lon: 150.77 Height: 112.0 m
Data from the previous 72 hours. | See also: Recent months at Campbelltown
Date/Time
EDT
Temp
°C
App
Temp
°C
Dew
Point
°C
Rel
Hum
%
Delta-T
°C
Wind Press
QNH
hPa
Press
MSL
hPa
Rain since
9am
mm
Dir  Spd
km/h
Gust
km/h
Spd
kts
Gust
kts
24/10:00pm 19.0 18.2 11.1 60 4.3 E 6 9 3 5 - - 0.0
24/09:30pm 19.6 18.6 10.3 55 5.0 E 6 11 3 6 - - 0.0
24/09:00pm 20.3 19.3 10.4 53 5.4 ESE 6 9 3 5 - - 0.0
24/08:30pm 20.7 20.3 9.9 50 5.8 ESE 2 7 1 4 - - 0.0
24/08:00pm 21.3 20.3 10.2 49 6.1 ESE 6 11 3 6 - - 0.0
24/07:30pm 22.1 20.3 9.6 45 6.8 E 9 13 5 7 - - 0.0
24/07:00pm 23.2 21.3 9.2 41 7.6 ENE 9 17 5 9 - - 0.0
24/06:30pm 23.9 21.6 9.1 39 8.0 ENE 11 17 6 9 - - 0.0
24/06:00pm 25.2 21.9 8.2 34 9.1 NE 15 26 8 14 - - 0.0
24/05:30pm 28.3 25.3 1.7 18 13.0 NE 7 13 4 7 - - 0.0
24/05:00pm 28.1 25.7 2.3 19 12.7 NE 4 9 2 5 - - 0.0
24/04:30pm 27.6 25.1 4.0 22 11.9 NNW 6 9 3 5 - - 0.0
24/04:00pm 28.2 25.6 3.1 20 12.6 N 6 13 3 7 - - 0.0
24/03:30pm 28.4 25.2 3.3 20 12.6 NW 9 15 5 8 - - 0.0
24/03:00pm 28.8 25.7 3.6 20 12.8 NNW 9 17 5 9 - - 0.0
24/02:30pm 28.0 25.2 3.0 20 12.5 NW 7 13 4 7 - - 0.0
24/02:00pm 27.3 24.5 5.0 24 11.5 NW 9 17 5 9 - - 0.0
24/01:30pm 27.1 22.7 2.9 21 12.0 NNW 15 30 8 16 - - 0.0
24/01:00pm 26.4 23.4 4.2 24 11.2 NNW 9 17 5 9 - - 0.0
24/12:30pm 26.3 23.6 7.4 30 10.1 N 11 17 6 9 - - 0.0
24/12:00pm 25.7 22.9 5.3 27 10.4 NNW 9 15 5 8 - - 0.0
24/11:30am 24.7 22.1 6.0 30 9.6 NNE 9 13 5 7 - - 0.0
24/11:00am 23.3 21.7 8.6 39 7.9 NNE 7 13 4 7 - - 0.0
24/10:30am 21.6 20.4 9.5 46 6.5 N 6 15 3 8 - - 0.0
24/10:00am 21.0 20.3 11.3 54 5.4 N 6 9 3 5 - - 0.0
24/09:30am 19.1 18.5 11.7 62 4.1 NNW 6 13 3 7 - - 0.0
24/09:00am 17.5 17.2 12.8 74 2.6 SSW 6 9 3 5 - - 0.0
24/08:30am 15.1 14.6 12.2 83 1.6 SSW 6 9 3 5 - - 0.0
24/08:00am 13.8 13.6 13.5 98 0.2 SW 7 15 4 8 - - 0.0
24/07:30am 11.7 11.0 11.5 99 0.1 S 6 7 3 4 - - 0.0
24/07:00am 9.9 9.5 9.8 99 0.1 SSW 2 7 1 4 - - 0.0
24/06:30am 8.4 8.0 8.3 99 0.0 CALM 0 0 0 0 - - 0.0
24/06:00am 8.4 8.0 8.3 99 0.0 CALM 0 0 0 0 - - 0.0
24/05:30am 8.8 8.5 8.7 99 0.0 CALM 0 0 0 0 - - 0.0
24/05:00am 9.2 9.0 9.1 99 0.0 CALM 0 0 0 0 - - 0.0
24/04:30am 9.3 9.1 9.2 99 0.0 CALM 0 0 0 0 - - 0.0
24/04:00am 9.6 9.5 9.5 99 0.1 CALM 0 0 0 0 - - 0.0
24/03:30am 9.6 9.5 9.5 99 0.1 CALM 0 0 0 0 - - 0.0
24/03:00am 10.2 10.3 10.1 99 0.1 CALM 0 0 0 0 - - 0.0
24/02:30am 10.7 10.9 10.5 99 0.1 CALM 0 0 0 0 - - 0.0
24/02:00am 10.8 11.0 10.6 99 0.1 CALM 0 0 0 0 - - 0.0
24/01:30am 11.3 11.7 11.1 99 0.1 CALM 0 0 0 0 - - 0.0
24/01:00am 11.2 11.5 11.0 99 0.1 CALM 0 0 0 0 - - 0.0
24/12:30am 11.3 11.7 11.1 99 0.1 CALM 0 0 0 0 - - 0.0
24/12:00am 11.4 11.8 11.1 98 0.2 CALM 0 0 0 0 - - 0.0
 
Date/Time
EDT
Temp
°C
App
Temp
°C
Dew
Point
°C
Rel
Hum
%
Delta-T
°C
Wind Press
QNH
hPa
Press
MSL
hPa
Rain since
9am
mm
Dir  Spd
km/h
Gust
km/h
Spd
kts
Gust
kts
23/11:30pm 11.6 12.0 11.1 97 0.3 CALM 0 0 0 0 - - 0.0
23/11:00pm 12.0 12.5 11.5 97 0.3 CALM 0 0 0 0 - - 0.0
23/10:30pm 11.9 12.2 11.0 94 0.5 CALM 0 0 0 0 - - 0.0
23/10:00pm 12.4 12.8 11.3 93 0.6 CALM 0 0 0 0 - - 0.0
23/09:30pm 13.0 13.4 11.4 90 0.9 CALM 0 0 0 0 - - 0.0
23/09:00pm 13.8 14.2 11.1 84 1.4 CALM 0 0 0 0 - - 0.0
23/08:30pm 15.1 14.8 11.5 79 1.9 ESE 4 9 2 5 - - 0.0
23/08:00pm 16.0 15.4 11.6 75 2.4 ENE 6 11 3 6 - - 0.0
23/07:30pm 16.5 15.2 11.2 71 2.9 ENE 9 19 5 10 - - 0.0
23/07:00pm 17.5 16.1 9.4 59 4.3 ENE 7 13 4 7 - - 0.0
23/06:30pm 18.9 16.4 8.0 49 5.6 ENE 11 17 6 9 - - 0.0
23/06:00pm 20.1 17.1 7.8 45 6.4 NE 13 24 7 13 - - 0.0
23/05:30pm 21.0 18.1 8.3 44 6.7 NE 13 20 7 11 - - 0.0
23/05:00pm 21.1 18.0 7.3 41 7.1 ENE 13 19 7 10 - - 0.0
23/04:30pm 20.5 18.0 8.2 45 6.4 NE 11 19 6 10 - - 0.0
23/04:00pm 20.5 18.3 7.8 44 6.6 ENE 9 19 5 10 - - 0.0
23/03:30pm 20.9 18.8 8.2 44 6.7 E 9 17 5 9 - - 0.0
23/03:00pm 21.7 19.2 6.4 37 7.8 SSE 9 17 5 9 - - 0.0
23/02:30pm 21.3 18.9 5.2 35 8.0 NE 7 15 4 8 - - 0.0
23/02:00pm 21.0 18.8 6.2 38 7.5 NNE 7 15 4 8 - - 0.0
23/01:30pm 21.3 18.3 6.0 37 7.7 SW 11 13 6 7 - - 0.0
23/01:00pm 20.0 17.1 4.9 37 7.4 N 9 13 5 7 - - 0.0
23/12:30pm 21.7 20.0 8.2 42 7.1 E 7 15 4 8 - - 0.0
23/12:00pm 20.7 18.0 7.3 42 6.9 N 11 13 6 7 - - 0.0
23/11:30am 19.6 19.2 9.8 53 5.3 SSW 2 9 1 5 - - 0.0
23/11:00am 18.3 16.6 8.3 52 5.2 NW 7 13 4 7 - - 0.0
23/10:30am 18.5 17.3 9.6 56 4.7 SW 6 13 3 7 - - 0.0
23/10:00am 17.8 16.5 9.9 60 4.2 S 7 15 4 8 - - 0.0
23/09:30am 16.5 15.0 10.6 68 3.2 SW 9 17 5 9 - - 0.0
23/09:00am 15.2 13.7 10.4 73 2.5 SW 9 15 5 8 - - 2.6
23/08:30am 13.8 12.4 10.8 82 1.6 SW 9 13 5 7 - - 2.6
23/08:00am 12.3 11.1 10.4 88 1.0 SW 7 11 4 6 - - 2.6
23/07:30am 11.2 11.3 10.1 93 0.6 CALM 0 0 0 0 - - 2.6
23/07:00am 10.2 9.5 10.1 99 0.1 SSW 4 9 2 5 - - 2.6
23/06:30am 8.6 8.2 8.2 97 0.2 CALM 0 0 0 0 - - 2.6
23/06:00am 9.0 8.6 8.4 96 0.3 CALM 0 0 0 0 - - 2.6
23/05:30am 9.6 8.2 8.8 95 0.4 SSW 6 9 3 5 - - 2.6
23/05:00am 10.1 8.9 9.5 96 0.3 SSW 6 9 3 5 - - 2.4
23/04:30am 10.3 9.0 9.8 97 0.3 SSW 7 11 4 6 - - 2.4
23/04:00am 10.3 9.0 10.0 98 0.2 SSW 7 11 4 6 - - 2.4
23/03:30am 10.1 9.3 9.6 97 0.3 SSW 4 7 2 4 - - 2.4
23/03:00am 10.5 10.1 9.9 96 0.3 SSW 2 7 1 4 - - 2.4
23/02:30am 11.2 11.4 10.4 95 0.4 CALM 0 0 0 0 - - 2.4
23/02:00am 12.1 12.5 11.3 95 0.4 CALM 0 0 0 0 - - 2.4
23/01:30am 12.2 12.6 11.3 94 0.5 CALM 0 0 0 0 - - 2.4
23/01:00am 12.3 11.5 11.2 93 0.6 SSW 6 7 3 4 - - 2.4
23/12:30am 12.8 12.1 11.9 94 0.5 SW 7 11 4 6 - - 2.4
23/12:00am 13.1 12.6 12.2 94 0.5 SW 6 9 3 5 - - 2.4
 
Date/Time
EDT
Temp
°C
App
Temp
°C
Dew
Point
°C
Rel
Hum
%
Delta-T
°C
Wind Press
QNH
hPa
Press
MSL
hPa
Rain since
9am
mm
Dir  Spd
km/h
Gust
km/h
Spd
kts
Gust
kts
22/11:30pm 13.0 12.5 12.1 94 0.5 SSW 6 9 3 5 - - 2.4
22/11:00pm 13.3 12.7 12.2 93 0.6 SSW 7 11 4 6 - - 2.0
22/10:30pm 13.6 13.4 13.0 96 0.3 S 6 7 3 4 - - 1.8
22/10:00pm 13.7 14.7 13.2 97 0.3 CALM 0 0 0 0 - - 1.6
22/09:30pm 13.8 14.8 13.2 96 0.3 CALM 0 0 0 0 - - 1.6
22/09:00pm 13.9 14.2 13.3 96 0.3 SSE 4 6 2 3 - - 1.6
22/08:30pm 13.9 14.9 13.1 95 0.4 CALM 0 0 0 0 - - 1.6
22/08:00pm 14.3 14.8 12.7 90 0.9 SE 2 7 1 4 - - 1.6
22/07:30pm 14.3 13.7 12.2 87 1.1 ESE 7 15 4 8 - - 1.2
22/07:00pm 15.2 14.2 12.2 82 1.6 ESE 9 15 5 8 - - 0.2
22/06:30pm 16.0 14.7 11.4 74 2.5 ESE 9 17 5 9 - - 0.2
22/06:00pm 16.6 14.9 11.3 71 2.9 ESE 11 17 6 9 - - 0.2
22/05:30pm 17.1 15.3 10.9 67 3.3 E 11 20 6 11 - - 0.2
22/05:00pm 18.2 16.4 10.8 62 4.0 ESE 11 20 6 11 - - 0.2
22/04:30pm 18.8 16.6 10.9 60 4.3 SSE 13 20 7 11 - - 0.2
22/04:00pm 17.7 16.4 12.6 72 2.9 SE 11 20 6 11 - - 0.2
22/03:30pm 16.5 14.2 11.6 73 2.7 ESE 15 24 8 13 - - 0.0
22/03:00pm 16.1 14.5 12.7 80 1.9 SE 13 20 7 11 - - 0.0
22/02:30pm 17.6 15.9 10.0 61 4.0 SSW 9 24 5 13 - - 0.0
22/02:00pm 19.3 15.7 6.8 44 6.3 NNW 15 24 8 13 - - 0.0
22/01:30pm 20.5 17.2 4.5 35 7.8 N 11 15 6 8 - - 0.0
22/01:00pm 21.3 18.7 4.4 33 8.3 ENE 7 15 4 8 - - 0.0
22/12:30pm 21.7 19.3 6.8 38 7.6 NE 9 20 5 11 - - 0.0
22/12:00pm 20.4 17.7 5.6 38 7.4 N 9 17 5 9 - - 0.0
22/11:30am 19.8 17.5 5.8 40 7.0 NNE 7 15 4 8 - - 0.0
22/11:00am 19.3 16.9 6.8 44 6.3 N 9 19 5 10 - - 0.0
22/10:30am 18.9 16.8 8.3 50 5.5 N 9 17 5 9 - - 0.0
22/10:00am 17.2 14.8 7.0 51 5.1 N 9 15 5 8 - - 0.0
22/09:30am 16.6 15.8 9.8 64 3.6 N 4 11 2 6 - - 0.0
22/09:00am 16.1 14.8 9.8 66 3.3 NNW 7 13 4 7 - - 0.2
22/08:30am 14.8 13.7 10.0 73 2.5 NNW 6 9 3 5 - - 0.2
22/08:00am 14.5 14.7 10.7 78 2.0 CALM 0 6 0 3 - - 0.2
22/07:30am 13.5 13.4 10.9 84 1.4 S 2 7 1 4 - - 0.2
22/07:00am 12.3 12.6 10.9 91 0.7 CALM 0 0 0 0 - - 0.2
22/06:30am 11.8 11.8 9.9 88 1.0 CALM 0 0 0 0 - - 0.2
22/06:00am 12.0 11.3 9.9 87 1.1 S 4 7 2 4 - - 0.2
22/05:30am 12.2 11.5 10.1 87 1.1 S 4 7 2 4 - - 0.2
22/05:00am 11.7 11.7 9.8 88 1.0 CALM 0 0 0 0 - - 0.2
22/04:30am 12.1 12.1 9.8 86 1.2 CALM 0 0 0 0 - - 0.2
22/04:00am 12.4 12.4 9.8 84 1.3 CALM 0 0 0 0 - - 0.2
22/03:30am 12.6 12.7 10.0 84 1.3 CALM 0 0 0 0 - - 0.2
22/03:00am 12.7 11.9 9.7 82 1.5 SSW 4 7 2 4 - - 0.2
22/02:30am 12.7 12.2 9.5 81 1.6 S 2 6 1 3 - - 0.2
22/02:00am 12.6 11.2 9.6 82 1.5 S 7 11 4 6 - - 0.2
22/01:30am 12.8 11.6 9.6 81 1.6 SSW 6 9 3 5 - - 0.2
22/01:00am 12.7 11.5 9.5 81 1.6 SSW 6 9 3 5 - - 0.2
22/12:30am 12.7 11.2 9.3 80 1.7 S 7 11 4 6 - - 0.2
22/12:00am 12.7 11.5 9.7 82 1.5 S 6 7 3 4 - - 0.2
 
Date/Time
EDT
Temp
°C
App
Temp
°C
Dew
Point
°C
Rel
Hum
%
Delta-T
°C
Wind Press
QNH
hPa
Press
MSL
hPa
Rain since
9am
mm
Dir  Spd
km/h
Gust
km/h
Spd
kts
Gust
kts
21/11:30pm 12.7 11.5 9.7 82 1.5 S 6 11 3 6 - - 0.2
21/11:00pm 12.4 11.4 10.3 87 1.1 S 6 9 3 5 - - 0.2
21/10:30pm 11.7 11.8 10.3 91 0.7 CALM 0 0 0 0 - - 0.2

Latest Capital City Observations: Canberra | Sydney | Melbourne | Brisbane | Adelaide | Perth | Hobart | Darwin

Other Formats:

Comma delimited format used in spreadsheet applications
http://www.bom.gov.au/fwo/IDN60901/IDN60901.94757.axf

JavaScript Object Notation format (JSON) in row-major order
http://www.bom.gov.au/fwo/IDN60901/IDN60901.94757.json